createdAt,value
2023-02-18T00:00:57.207Z,1010.00
2023-02-18T00:01:58.139Z,1010.00
2023-02-18T00:02:57.185Z,1010.00
2023-02-18T00:03:57.176Z,1010.00
2023-02-18T00:04:57.155Z,1010.00
2023-02-18T00:05:57.122Z,1010.00
2023-02-18T00:06:57.146Z,1010.00
2023-02-18T00:07:58.048Z,1010.00
2023-02-18T00:08:57.097Z,1010.00
2023-02-18T00:09:57.087Z,1010.00
2023-02-18T00:10:57.068Z,1010.00
2023-02-18T00:11:57.055Z,1010.00
2023-02-18T00:12:57.954Z,1010.00
2023-02-18T00:13:57.033Z,1010.00
2023-02-18T00:14:57.010Z,1010.00
2023-02-18T00:15:57.062Z,1010.00
2023-02-18T00:16:56.998Z,1010.00
2023-02-18T00:17:56.970Z,1010.00
2023-02-18T00:18:57.922Z,1010.00
2023-02-18T00:19:56.963Z,1010.00
2023-02-18T00:20:56.934Z,1010.00
2023-02-18T00:21:56.924Z,1010.00
2023-02-18T00:22:56.933Z,1010.00
2023-02-18T00:23:57.817Z,1010.00
2023-02-18T00:24:56.901Z,1010.00
2023-02-18T00:25:56.860Z,1010.00
2023-02-18T00:26:56.851Z,1010.00
2023-02-18T00:27:56.846Z,1010.00
2023-02-18T00:28:56.848Z,1010.00
2023-02-18T00:29:57.794Z,1010.00
2023-02-18T00:30:56.841Z,1010.00
2023-02-18T00:31:56.932Z,1010.00
2023-02-18T00:32:56.832Z,1010.00
2023-02-18T00:33:56.771Z,1010.00
2023-02-18T00:34:57.734Z,1010.00
2023-02-18T00:35:56.741Z,1010.00
2023-02-18T00:36:56.745Z,1010.00
2023-02-18T00:37:56.707Z,1010.00
2023-02-18T00:38:56.736Z,1010.00
2023-02-18T00:39:57.632Z,1010.00
2023-02-18T00:40:56.683Z,1010.00
2023-02-18T00:41:56.681Z,1010.00
2023-02-18T00:42:56.645Z,1010.00
2023-02-18T00:43:56.656Z,1010.00
2023-02-18T00:44:56.676Z,1010.00
2023-02-18T00:45:57.645Z,1010.00
2023-02-18T00:46:56.612Z,1010.00
2023-02-18T00:47:56.590Z,1010.00
2023-02-18T00:48:56.598Z,1010.00
2023-02-18T00:49:56.561Z,1010.00
2023-02-18T00:50:56.557Z,1010.00
2023-02-18T00:51:57.520Z,1010.00
2023-02-18T00:52:56.533Z,1010.00
2023-02-18T00:53:56.518Z,1010.00
2023-02-18T00:54:56.503Z,1010.00
2023-02-18T00:55:56.507Z,1010.00
2023-02-18T00:56:57.405Z,1010.00
2023-02-18T00:57:56.546Z,1010.00
2023-02-18T00:58:56.464Z,1010.00
2023-02-18T00:59:56.460Z,1010.00
2023-02-18T01:00:56.439Z,1011.00
2023-02-18T01:01:56.522Z,1011.00
2023-02-18T01:02:57.340Z,1011.00
2023-02-18T01:03:56.401Z,1011.00
2023-02-18T01:04:56.407Z,1011.00
2023-02-18T01:05:56.408Z,1010.00
2023-02-18T01:06:56.377Z,1010.00
2023-02-18T01:07:56.380Z,1010.00
2023-02-18T01:08:57.258Z,1011.00
2023-02-18T01:09:56.323Z,1011.00
2023-02-18T01:10:56.328Z,1010.00
2023-02-18T01:11:56.311Z,1010.00
2023-02-18T01:12:56.260Z,1010.00
2023-02-18T01:13:56.289Z,1010.00
2023-02-18T01:14:57.204Z,1010.00
2023-02-18T01:15:56.278Z,1010.00
2023-02-18T01:16:56.239Z,1010.00
2023-02-18T01:17:56.214Z,1010.00
2023-02-18T01:18:56.250Z,1010.00
2023-02-18T01:19:56.204Z,1010.00
2023-02-18T01:20:57.117Z,1010.00
2023-02-18T01:21:56.176Z,1010.00
2023-02-18T01:22:56.139Z,1010.00
2023-02-18T01:23:56.189Z,1010.00
2023-02-18T01:24:56.132Z,1010.00
2023-02-18T01:25:57.206Z,1010.00
2023-02-18T01:26:56.103Z,1010.00
2023-02-18T01:27:56.089Z,1010.00
2023-02-18T01:28:56.084Z,1010.00
2023-02-18T01:29:56.142Z,1010.00
2023-02-18T01:30:57.073Z,1010.00
2023-02-18T01:31:56.155Z,1010.00
2023-02-18T01:32:56.033Z,1010.00
2023-02-18T01:33:56.008Z,1010.00
2023-02-18T01:34:56.007Z,1010.00
2023-02-18T01:35:56.004Z,1010.00
2023-02-18T01:36:56.910Z,1010.00
2023-02-18T01:37:55.956Z,1010.00
2023-02-18T01:38:55.960Z,1010.00
2023-02-18T01:39:55.967Z,1010.00
2023-02-18T01:40:55.943Z,1010.00
2023-02-18T01:41:55.918Z,1010.00
2023-02-18T01:42:56.854Z,1010.00
2023-02-18T01:43:55.882Z,1010.00
2023-02-18T01:44:55.873Z,1010.00
2023-02-18T01:45:55.855Z,1010.00
2023-02-18T01:46:55.924Z,1010.00
2023-02-18T01:47:55.848Z,1010.00
2023-02-18T01:48:56.756Z,1010.00
2023-02-18T01:49:55.830Z,1010.00
2023-02-18T01:50:55.815Z,1010.00
2023-02-18T01:51:56.281Z,1010.00
2023-02-18T01:52:55.764Z,1010.00
2023-02-18T01:53:56.777Z,1010.00
2023-02-18T01:54:55.738Z,1010.00
2023-02-18T01:55:55.759Z,1010.00
2023-02-18T01:56:55.736Z,1010.00
2023-02-18T01:57:55.729Z,1010.00
2023-02-18T01:58:56.647Z,1010.00
2023-02-18T01:59:55.714Z,1010.00
2023-02-18T02:00:55.742Z,1010.00
2023-02-18T02:01:55.683Z,1010.00
2023-02-18T02:02:55.627Z,1010.00
2023-02-18T02:03:56.576Z,1010.00
2023-02-18T02:04:55.643Z,1010.00
2023-02-18T02:05:55.618Z,1010.00
2023-02-18T02:06:55.586Z,1010.00
2023-02-18T02:07:55.607Z,1010.00
2023-02-18T02:08:56.514Z,1010.00
2023-02-18T02:09:55.558Z,1010.00
2023-02-18T02:10:55.577Z,1010.00
2023-02-18T02:11:55.527Z,1010.00
2023-02-18T02:12:55.526Z,1010.00
2023-02-18T02:13:55.512Z,1010.00
2023-02-18T02:14:56.426Z,1010.00
2023-02-18T02:15:55.540Z,1010.00
2023-02-18T02:16:55.472Z,1010.00
2023-02-18T02:17:55.527Z,1010.00
2023-02-18T02:18:55.459Z,1010.00
2023-02-18T02:19:56.396Z,1010.00
2023-02-18T02:20:55.429Z,1010.00
2023-02-18T02:21:55.425Z,1010.00
2023-02-18T02:22:55.468Z,1011.00
2023-02-18T02:23:55.383Z,1011.00
2023-02-18T02:24:56.303Z,1011.00
2023-02-18T02:25:55.374Z,1011.00
2023-02-18T02:26:55.359Z,1011.00
2023-02-18T02:27:55.351Z,1011.00
2023-02-18T02:28:55.325Z,1011.00
2023-02-18T02:29:56.309Z,1011.00
2023-02-18T02:30:55.356Z,1011.00
2023-02-18T02:31:55.350Z,1011.00
2023-02-18T02:32:55.264Z,1011.00
2023-02-18T02:33:55.245Z,1011.00
2023-02-18T02:34:55.246Z,1011.00
2023-02-18T02:35:56.284Z,1011.00
2023-02-18T02:36:56.028Z,1011.00
2023-02-18T02:37:55.202Z,1011.00
2023-02-18T02:38:55.200Z,1011.00
2023-02-18T02:39:55.209Z,1011.00
2023-02-18T02:40:55.173Z,1011.00
2023-02-18T02:41:56.137Z,1011.00
2023-02-18T02:42:55.142Z,1011.00
2023-02-18T02:43:55.155Z,1011.00
2023-02-18T02:44:55.141Z,1011.00
2023-02-18T02:45:55.159Z,1011.00
2023-02-18T02:46:55.104Z,1011.00
2023-02-18T02:47:56.044Z,1011.00
2023-02-18T02:48:55.089Z,1011.00
2023-02-18T02:49:55.089Z,1011.00
2023-02-18T02:50:55.104Z,1011.00
2023-02-18T02:51:55.048Z,1010.00
2023-02-18T02:52:55.976Z,1011.00
2023-02-18T02:53:55.002Z,1011.00
2023-02-18T02:54:55.059Z,1011.00
2023-02-18T02:55:54.973Z,1011.00
2023-02-18T02:56:54.987Z,1011.00
2023-02-18T02:57:55.967Z,1011.00
2023-02-18T02:58:54.987Z,1011.00
2023-02-18T02:59:54.960Z,1011.00
2023-02-18T03:00:54.989Z,1011.00
2023-02-18T03:01:54.947Z,1011.00
2023-02-18T03:02:55.875Z,1011.00
2023-02-18T03:03:54.867Z,1011.00
2023-02-18T03:04:54.944Z,1011.00
2023-02-18T03:05:54.884Z,1011.00
2023-02-18T03:06:54.890Z,1011.00
2023-02-18T03:07:54.830Z,1011.00
2023-02-18T03:08:55.777Z,1011.00
2023-02-18T03:09:54.808Z,1011.00
2023-02-18T03:10:54.814Z,1011.00
2023-02-18T03:11:54.777Z,1011.00
2023-02-18T03:12:54.804Z,1011.00
2023-02-18T03:13:55.808Z,1011.00
2023-02-18T03:14:54.766Z,1011.00
2023-02-18T03:15:54.755Z,1011.00
2023-02-18T03:16:54.762Z,1011.00
2023-02-18T03:17:54.732Z,1011.00
2023-02-18T03:18:55.642Z,1011.00
2023-02-18T03:19:54.680Z,1011.00
2023-02-18T03:20:54.684Z,1010.00
2023-02-18T03:21:54.679Z,1010.00
2023-02-18T03:22:54.679Z,1011.00
2023-02-18T03:23:54.631Z,1011.00
2023-02-18T03:24:55.569Z,1011.00
2023-02-18T03:25:54.612Z,1011.00
2023-02-18T03:26:54.625Z,1011.00
2023-02-18T03:27:54.589Z,1011.00
2023-02-18T03:28:54.554Z,1011.00
2023-02-18T03:29:55.537Z,1011.00
2023-02-18T03:30:54.556Z,1011.00
2023-02-18T03:31:54.630Z,1011.00
2023-02-18T03:32:54.563Z,1011.00
2023-02-18T03:33:54.509Z,1011.00
2023-02-18T03:34:55.426Z,1011.00
2023-02-18T03:35:54.477Z,1011.00
2023-02-18T03:36:54.464Z,1011.00
2023-02-18T03:37:54.468Z,1011.00
2023-02-18T03:38:54.457Z,1011.00
2023-02-18T03:39:55.426Z,1011.00
2023-02-18T03:40:54.421Z,1011.00
2023-02-18T03:41:54.445Z,1011.00
2023-02-18T03:42:54.404Z,1011.00
2023-02-18T03:43:54.386Z,1011.00
2023-02-18T03:44:55.323Z,1011.00
2023-02-18T03:45:54.387Z,1011.00
2023-02-18T03:46:54.361Z,1011.00
2023-02-18T03:47:54.372Z,1011.00
2023-02-18T03:48:54.332Z,1011.00
2023-02-18T03:49:55.285Z,1011.00
2023-02-18T03:50:54.309Z,1011.00
2023-02-18T03:51:54.311Z,1011.00
2023-02-18T03:52:54.256Z,1011.00
2023-02-18T03:53:54.286Z,1011.00
2023-02-18T03:54:54.221Z,1010.00
2023-02-18T03:55:55.213Z,1010.00
2023-02-18T03:56:54.227Z,1010.00
2023-02-18T03:57:54.198Z,1010.00
2023-02-18T03:58:54.177Z,1010.00
2023-02-18T03:59:54.167Z,1010.00
2023-02-18T04:00:55.119Z,1010.00
2023-02-18T04:01:54.246Z,1010.00
2023-02-18T04:02:54.130Z,1010.00
2023-02-18T04:03:54.119Z,1011.00
2023-02-18T04:04:54.098Z,1011.00
2023-02-18T04:05:54.089Z,1010.00
2023-02-18T04:06:55.025Z,1010.00
2023-02-18T04:07:54.096Z,1010.00
2023-02-18T04:08:54.057Z,1010.00
2023-02-18T04:09:54.042Z,1010.00
2023-02-18T04:10:54.026Z,1010.00
2023-02-18T04:11:54.976Z,1010.00
2023-02-18T04:12:54.018Z,1010.00
2023-02-18T04:13:53.996Z,1011.00
2023-02-18T04:14:54.003Z,1011.00
2023-02-18T04:15:53.987Z,1011.00
2023-02-18T04:16:54.931Z,1011.00
2023-02-18T04:17:53.956Z,1011.00
2023-02-18T04:18:53.956Z,1011.00
2023-02-18T04:19:53.929Z,1011.00
2023-02-18T04:20:53.897Z,1011.00
2023-02-18T04:21:54.913Z,1011.00
2023-02-18T04:22:53.881Z,1011.00
2023-02-18T04:23:53.874Z,1011.00
2023-02-18T04:24:53.858Z,1011.00
2023-02-18T04:25:53.887Z,1011.00
2023-02-18T04:26:53.913Z,1011.00
2023-02-18T04:27:54.809Z,1011.00
2023-02-18T04:28:53.808Z,1011.00
2023-02-18T04:29:53.796Z,1011.00
2023-02-18T04:30:53.789Z,1011.00
2023-02-18T04:31:53.813Z,1011.00
2023-02-18T04:32:53.741Z,1011.00
2023-02-18T04:34:00.044Z,1011.00
2023-02-18T04:34:53.738Z,1011.00
2023-02-18T04:35:53.737Z,1011.00
2023-02-18T04:36:53.779Z,1011.00
2023-02-18T04:37:53.696Z,1011.00
2023-02-18T04:38:54.645Z,1011.00
2023-02-18T04:39:53.693Z,1011.00
2023-02-18T04:40:53.647Z,1011.00
2023-02-18T04:41:53.645Z,1011.00
2023-02-18T04:42:53.638Z,1011.00
2023-02-18T04:43:53.618Z,1011.00
2023-02-18T04:44:54.555Z,1011.00
2023-02-18T04:45:53.622Z,1011.00
2023-02-18T04:46:53.614Z,1011.00
2023-02-18T04:48:52.155Z,1011.00
2023-02-18T04:49:52.982Z,1011.00
2023-02-18T04:50:52.684Z,1011.00
2023-02-18T04:51:52.151Z,1011.00
2023-02-18T04:52:51.994Z,1011.00
2023-02-18T04:53:52.053Z,1011.00
2023-02-18T04:54:51.972Z,1011.00
2023-02-18T04:55:52.901Z,1011.00
2023-02-18T04:56:51.977Z,1011.00
2023-02-18T04:57:51.950Z,1011.00
2023-02-18T04:58:51.965Z,1011.00
2023-02-18T04:59:51.960Z,1011.00
2023-02-18T05:00:52.824Z,1011.00
2023-02-18T05:01:51.962Z,1011.00
2023-02-18T05:02:51.948Z,1011.00
2023-02-18T05:03:51.886Z,1011.00
2023-02-18T05:04:52.816Z,1011.00
2023-02-18T05:05:51.847Z,1011.00
2023-02-18T05:06:52.818Z,1011.00
2023-02-18T05:07:51.816Z,1011.00
2023-02-18T05:08:51.806Z,1011.00
2023-02-18T05:09:51.832Z,1011.00
2023-02-18T05:10:51.770Z,1011.00
2023-02-18T05:11:52.822Z,1011.00
2023-02-18T05:12:51.850Z,1011.00
2023-02-18T05:13:51.744Z,1011.00
2023-02-18T05:14:51.815Z,1011.00
2023-02-18T05:15:51.713Z,1011.00
2023-02-18T05:16:52.694Z,1011.00
2023-02-18T05:17:51.834Z,1011.00
2023-02-18T05:18:51.672Z,1011.00
2023-02-18T05:19:51.715Z,1011.00
2023-02-18T05:20:51.689Z,1011.00
2023-02-18T05:21:52.625Z,1011.00
2023-02-18T05:22:52.634Z,1011.00
2023-02-18T05:23:51.640Z,1011.00
2023-02-18T05:24:51.616Z,1011.00
2023-02-18T05:25:51.635Z,1011.00
2023-02-18T05:26:52.583Z,1011.00
2023-02-18T05:27:51.682Z,1011.00
2023-02-18T05:28:52.565Z,1011.00
2023-02-18T05:29:51.570Z,1011.00
2023-02-18T05:30:51.638Z,1011.00
2023-02-18T05:31:52.584Z,1011.00
2023-02-18T05:32:51.551Z,1011.00
2023-02-18T05:33:51.517Z,1011.00
2023-02-18T05:34:51.555Z,1011.00
2023-02-18T05:35:51.478Z,1011.00
2023-02-18T05:36:52.413Z,1011.00
2023-02-18T05:37:51.429Z,1011.00
2023-02-18T05:38:51.449Z,1011.00
2023-02-18T05:39:51.413Z,1011.00
2023-02-18T05:40:51.412Z,1011.00
2023-02-18T05:41:51.388Z,1011.00
2023-02-18T05:42:52.362Z,1011.00
2023-02-18T05:43:51.442Z,1011.00
2023-02-18T05:44:51.382Z,1011.00
2023-02-18T05:45:51.333Z,1010.00
2023-02-18T05:46:52.338Z,1010.00
2023-02-18T05:47:51.448Z,1010.00
2023-02-18T05:48:52.259Z,1010.00
2023-02-18T05:49:51.288Z,1010.00
2023-02-18T05:50:51.306Z,1010.00
2023-02-18T05:51:51.371Z,1010.00
2023-02-18T05:52:51.300Z,1010.00
2023-02-18T05:53:51.312Z,1010.00
2023-02-18T05:54:52.215Z,1010.00
2023-02-18T05:55:51.258Z,1010.00
2023-02-18T05:56:51.250Z,1010.00
2023-02-18T05:57:51.219Z,1010.00
2023-02-18T05:58:51.206Z,1010.00
2023-02-18T05:59:51.205Z,1010.00
2023-02-18T06:00:52.165Z,1011.00
2023-02-18T06:01:51.168Z,1011.00
2023-02-18T06:02:51.210Z,1011.00
2023-02-18T06:03:51.135Z,1010.00
2023-02-18T06:04:51.113Z,1010.00
2023-02-18T06:05:51.270Z,1011.00
2023-02-18T06:06:52.098Z,1011.00
2023-02-18T06:07:51.130Z,1010.00
2023-02-18T06:08:51.117Z,1011.00
2023-02-18T06:09:51.174Z,1011.00
2023-02-18T06:10:51.977Z,1011.00
2023-02-18T06:11:51.951Z,1011.00
2023-02-18T06:12:51.096Z,1011.00
2023-02-18T06:13:50.991Z,1011.00
2023-02-18T06:14:51.924Z,1011.00
2023-02-18T06:15:51.062Z,1011.00
2023-02-18T06:16:51.967Z,1011.00
2023-02-18T06:17:50.991Z,1010.00
2023-02-18T06:18:50.978Z,1010.00
2023-02-18T06:19:50.926Z,1010.00
2023-02-18T06:20:50.914Z,1010.00
2023-02-18T06:21:51.818Z,1010.00
2023-02-18T06:22:50.948Z,1010.00
2023-02-18T06:23:50.934Z,1010.00
2023-02-18T06:24:50.857Z,1010.00
2023-02-18T06:25:50.914Z,1010.00
2023-02-18T06:26:51.012Z,1010.00
2023-02-18T06:27:51.787Z,1010.00
2023-02-18T06:28:50.824Z,1011.00
2023-02-18T06:29:50.808Z,1011.00
2023-02-18T06:30:50.831Z,1011.00
2023-02-18T06:31:50.833Z,1011.00
2023-02-18T06:32:51.689Z,1011.00
2023-02-18T06:33:50.728Z,1011.00
2023-02-18T06:34:50.798Z,1011.00
2023-02-18T06:35:50.792Z,1011.00
2023-02-18T06:36:50.709Z,1011.00
2023-02-18T06:37:51.634Z,1011.00
2023-02-18T06:38:50.746Z,1011.00
2023-02-18T06:39:51.713Z,1011.00
2023-02-18T06:40:50.746Z,1011.00
2023-02-18T06:41:50.688Z,1011.00
2023-02-18T06:42:51.541Z,1011.00
2023-02-18T06:43:50.657Z,1011.00
2023-02-18T06:44:50.585Z,1011.00
2023-02-18T06:45:50.701Z,1011.00
2023-02-18T06:46:50.615Z,1011.00
2023-02-18T06:47:51.477Z,1011.00
2023-02-18T06:48:50.598Z,1010.00
2023-02-18T06:49:50.549Z,1010.00
2023-02-18T06:50:50.523Z,1010.00
2023-02-18T06:51:50.487Z,1010.00
2023-02-18T06:52:50.488Z,1010.00
2023-02-18T06:53:51.450Z,1010.00
2023-02-18T06:54:50.493Z,1010.00
2023-02-18T06:55:50.555Z,1010.00
2023-02-18T06:56:50.431Z,1010.00
2023-02-18T06:57:50.526Z,1010.00
2023-02-18T06:58:50.441Z,1010.00
2023-02-18T06:59:51.318Z,1010.00
2023-02-18T07:00:50.648Z,1010.00
2023-02-18T07:01:50.386Z,1010.00
2023-02-18T07:02:50.401Z,1010.00
2023-02-18T07:03:50.528Z,1010.00
2023-02-18T07:04:50.315Z,1010.00
2023-02-18T07:05:51.280Z,1010.00
2023-02-18T07:06:50.372Z,1010.00
2023-02-18T07:07:50.438Z,1010.00
2023-02-18T07:08:50.320Z,1010.00
2023-02-18T07:09:50.256Z,1010.00
2023-02-18T07:10:50.939Z,1010.00
2023-02-18T07:11:51.329Z,1010.00
2023-02-18T07:12:50.301Z,1010.00
2023-02-18T07:13:50.193Z,1010.00
2023-02-18T07:14:50.215Z,1010.00
2023-02-18T07:15:50.190Z,1010.00
2023-02-18T07:16:50.198Z,1010.00
2023-02-18T07:17:51.124Z,1010.00
2023-02-18T07:18:50.208Z,1010.00
2023-02-18T07:19:50.204Z,1010.00
2023-02-18T07:20:50.344Z,1010.00
2023-02-18T07:21:50.116Z,1010.00
2023-02-18T07:22:51.083Z,1010.00
2023-02-18T07:23:50.085Z,1010.00
2023-02-18T07:24:50.105Z,1010.00
2023-02-18T07:25:50.127Z,1010.00
2023-02-18T07:26:50.064Z,1010.00
2023-02-18T07:27:50.102Z,1010.00
2023-02-18T07:28:51.039Z,1010.00
2023-02-18T07:29:50.053Z,1010.00
2023-02-18T07:30:50.131Z,1010.00
2023-02-18T07:31:50.049Z,1010.00
2023-02-18T07:32:50.000Z,1010.00
2023-02-18T07:33:50.969Z,1010.00
2023-02-18T07:34:49.977Z,1010.00
2023-02-18T07:35:49.923Z,1010.00
2023-02-18T07:36:49.921Z,1010.00
2023-02-18T07:37:49.944Z,1010.00
2023-02-18T07:38:49.913Z,1010.00
2023-02-18T07:39:50.818Z,1010.00
2023-02-18T07:40:49.854Z,1010.00
2023-02-18T07:41:49.872Z,1010.00
2023-02-18T07:42:49.887Z,1010.00
2023-02-18T07:43:49.823Z,1010.00
2023-02-18T07:44:50.778Z,1010.00
2023-02-18T07:45:49.897Z,1010.00
2023-02-18T07:46:49.844Z,1010.00
2023-02-18T07:47:49.831Z,1010.00
2023-02-18T07:48:49.800Z,1010.00
2023-02-18T07:49:50.717Z,1010.00
2023-02-18T07:50:49.782Z,1010.00
2023-02-18T07:51:49.707Z,1010.00
2023-02-18T07:52:49.773Z,1010.00
2023-02-18T07:53:49.768Z,1010.00
2023-02-18T07:54:50.722Z,1010.00
2023-02-18T07:55:49.664Z,1010.00
2023-02-18T07:56:49.687Z,1010.00
2023-02-18T07:57:49.680Z,1010.00
2023-02-18T07:58:49.757Z,1010.00
2023-02-18T07:59:50.569Z,1010.00
2023-02-18T08:00:49.651Z,1010.00
2023-02-18T08:01:49.661Z,1010.00
2023-02-18T08:02:49.621Z,1010.00
2023-02-18T08:03:49.613Z,1010.00
2023-02-18T08:04:55.998Z,1010.00
2023-02-18T08:05:49.616Z,1010.00
2023-02-18T08:06:49.614Z,1010.00
2023-02-18T08:07:49.543Z,1010.00
2023-02-18T08:08:49.605Z,1010.00
2023-02-18T08:09:49.575Z,1010.00
2023-02-18T08:10:50.564Z,1010.00
2023-02-18T08:11:49.493Z,1010.00
2023-02-18T08:12:49.546Z,1010.00
2023-02-18T08:13:49.552Z,1010.00
2023-02-18T08:14:49.456Z,1010.00
2023-02-18T08:15:50.438Z,1010.00
2023-02-18T08:16:49.443Z,1010.00
2023-02-18T08:17:49.414Z,1010.00
2023-02-18T08:18:49.546Z,1010.00
2023-02-18T08:19:49.588Z,1010.00
2023-02-18T08:20:49.359Z,1010.00
2023-02-18T08:21:50.281Z,1010.00
2023-02-18T08:22:49.351Z,1010.00
2023-02-18T08:23:49.432Z,1010.00
2023-02-18T08:24:49.425Z,1010.00
2023-02-18T08:25:50.211Z,1010.00
2023-02-18T08:27:00.216Z,1010.00
2023-02-18T08:27:51.755Z,1010.00
2023-02-18T08:28:49.327Z,1010.00
2023-02-18T08:29:49.241Z,1009.00
2023-02-18T08:30:49.243Z,1009.00
2023-02-18T08:31:49.289Z,1009.00
2023-02-18T08:32:50.200Z,1009.00
2023-02-18T08:33:49.205Z,1009.00
2023-02-18T08:34:49.293Z,1009.00
2023-02-18T08:35:49.225Z,1009.00
2023-02-18T08:36:49.133Z,1009.00
2023-02-18T08:37:52.944Z,1009.00
2023-02-18T08:38:51.612Z,1009.00
2023-02-18T08:39:49.178Z,1009.00
2023-02-18T08:40:49.090Z,1009.00
2023-02-18T08:41:49.095Z,1009.00
2023-02-18T08:42:49.089Z,1009.00
2023-02-18T08:43:50.979Z,1009.00
2023-02-18T08:44:49.234Z,1009.00
2023-02-18T08:45:49.222Z,1009.00
2023-02-18T08:46:49.075Z,1009.00
2023-02-18T08:48:18.239Z,1009.00
2023-02-18T08:48:50.997Z,1009.00
2023-02-18T08:49:49.038Z,1009.00
2023-02-18T08:50:49.002Z,1009.00
2023-02-18T08:51:49.042Z,1009.00
2023-02-18T08:52:48.966Z,1009.00
2023-02-18T08:53:48.979Z,1009.00
2023-02-18T08:54:50.013Z,1009.00
2023-02-18T08:55:48.970Z,1009.00
2023-02-18T08:56:49.031Z,1009.00
2023-02-18T08:57:48.875Z,1009.00
2023-02-18T08:58:48.896Z,1009.00
2023-02-18T08:59:48.830Z,1009.00
2023-02-18T09:00:49.966Z,1009.00
2023-02-18T09:01:48.861Z,1009.00
2023-02-18T09:02:49.520Z,1009.00
2023-02-18T09:03:48.934Z,1009.00
2023-02-18T09:04:48.879Z,1009.00
2023-02-18T09:05:48.837Z,1009.00
2023-02-18T09:06:49.715Z,1009.00
2023-02-18T09:07:48.844Z,1009.00
2023-02-18T09:08:49.778Z,1009.00
2023-02-18T09:09:48.733Z,1009.00
2023-02-18T09:10:49.030Z,1009.00
2023-02-18T09:11:48.816Z,1009.00
2023-02-18T09:12:49.623Z,1009.00
2023-02-18T09:13:48.676Z,1009.00
2023-02-18T09:14:48.782Z,1009.00
2023-02-18T09:15:48.753Z,1009.00
2023-02-18T09:16:48.748Z,1009.00
2023-02-18T09:17:49.793Z,1009.00
2023-02-18T09:18:48.851Z,1009.00
2023-02-18T09:19:48.629Z,1009.00
2023-02-18T09:20:48.620Z,1009.00
2023-02-18T09:21:48.614Z,1009.00
2023-02-18T09:22:49.603Z,1009.00
2023-02-18T09:23:48.594Z,1009.00
2023-02-18T09:24:48.593Z,1009.00
2023-02-18T09:25:48.500Z,1009.00
2023-02-18T09:26:48.594Z,1009.00
2023-02-18T09:27:48.580Z,1009.00
2023-02-18T09:28:49.567Z,1009.00
2023-02-18T09:29:48.554Z,1009.00
2023-02-18T09:30:48.520Z,1009.00
2023-02-18T09:31:48.602Z,1009.00
2023-02-18T09:32:48.577Z,1009.00
2023-02-18T09:33:48.558Z,1009.00
2023-02-18T09:34:49.303Z,1009.00
2023-02-18T09:35:48.409Z,1009.00
2023-02-18T09:36:48.546Z,1009.00
2023-02-18T09:37:48.352Z,1009.00
2023-02-18T09:38:48.460Z,1009.00
2023-02-18T09:39:49.237Z,1009.00
2023-02-18T09:40:48.428Z,1008.00
2023-02-18T09:41:48.281Z,1008.00
2023-02-18T09:42:48.291Z,1008.00
2023-02-18T09:43:48.378Z,1008.00
2023-02-18T09:44:48.249Z,1008.00
2023-02-18T09:45:49.197Z,1008.00
2023-02-18T09:46:48.254Z,1008.00
2023-02-18T09:47:48.295Z,1008.00
2023-02-18T09:48:48.251Z,1008.00
2023-02-18T09:49:48.194Z,1008.00
2023-02-18T09:50:49.233Z,1008.00
2023-02-18T09:51:48.287Z,1008.00
2023-02-18T09:52:48.194Z,1008.00
2023-02-18T09:53:48.135Z,1008.00
2023-02-18T09:54:48.152Z,1008.00
2023-02-18T09:55:48.159Z,1008.00
2023-02-18T09:56:49.047Z,1008.00
2023-02-18T09:57:48.089Z,1008.00
2023-02-18T09:58:48.352Z,1008.00
2023-02-18T09:59:48.116Z,1008.00
2023-02-18T10:00:48.152Z,1008.00
2023-02-18T10:01:48.149Z,1008.00
2023-02-18T10:02:48.973Z,1008.00
2023-02-18T10:03:48.121Z,1008.00
2023-02-18T10:04:48.022Z,1008.00
2023-02-18T10:05:48.031Z,1008.00
2023-02-18T10:06:48.000Z,1008.00
2023-02-18T10:07:48.975Z,1008.00
2023-02-18T10:08:47.954Z,1008.00
2023-02-18T10:09:47.938Z,1008.00
2023-02-18T10:10:47.937Z,1008.00
2023-02-18T10:11:47.935Z,1008.00
2023-02-18T10:12:49.011Z,1008.00
2023-02-18T10:13:47.928Z,1008.00
2023-02-18T10:14:47.897Z,1008.00
2023-02-18T10:15:47.908Z,1008.00
2023-02-18T10:16:48.002Z,1008.00
2023-02-18T10:17:47.961Z,1008.00
2023-02-18T10:18:48.755Z,1008.00
2023-02-18T10:19:47.875Z,1008.00
2023-02-18T10:20:47.855Z,1008.00
2023-02-18T10:21:47.829Z,1008.00
2023-02-18T10:22:47.790Z,1008.00
2023-02-18T10:23:47.829Z,1008.00
2023-02-18T10:24:48.759Z,1007.00
2023-02-18T10:25:47.756Z,1007.00
2023-02-18T10:26:47.710Z,1007.00
2023-02-18T10:27:47.800Z,1007.00
2023-02-18T10:28:47.733Z,1007.00
2023-02-18T10:29:48.628Z,1007.00
2023-02-18T10:30:47.697Z,1007.00
2023-02-18T10:31:47.733Z,1007.00
2023-02-18T10:32:47.985Z,1007.00
2023-02-18T10:33:47.677Z,1007.00
2023-02-18T10:34:47.611Z,1007.00
2023-02-18T10:35:48.539Z,1007.00
2023-02-18T10:36:47.651Z,1007.00
2023-02-18T10:37:47.630Z,1007.00
2023-02-18T10:38:47.729Z,1007.00
2023-02-18T10:39:47.528Z,1007.00
2023-02-18T10:40:47.658Z,1007.00
2023-02-18T10:41:48.492Z,1007.00
2023-02-18T10:42:47.712Z,1007.00
2023-02-18T10:43:48.226Z,1007.00
2023-02-18T10:44:47.521Z,1007.00
2023-02-18T10:45:47.561Z,1007.00
2023-02-18T10:46:48.398Z,1007.00
2023-02-18T10:48:46.363Z,1006.00
2023-02-18T10:49:46.328Z,1007.00
2023-02-18T10:50:46.294Z,1006.00
2023-02-18T10:51:47.238Z,1006.00
2023-02-18T10:52:46.339Z,1006.00
2023-02-18T10:53:46.277Z,1006.00
2023-02-18T10:54:46.251Z,1006.00
2023-02-18T10:55:46.248Z,1006.00
2023-02-18T10:56:48.137Z,1006.00
2023-02-18T10:57:47.149Z,1006.00
2023-02-18T10:58:46.196Z,1006.00
2023-02-18T10:59:46.209Z,1006.00
2023-02-18T11:00:46.166Z,1006.00
2023-02-18T11:01:46.167Z,1006.00
2023-02-18T11:02:47.077Z,1006.00
2023-02-18T11:03:46.143Z,1006.00
2023-02-18T11:04:46.197Z,1006.00
2023-02-18T11:05:46.127Z,1006.00
2023-02-18T11:06:46.101Z,1006.00
2023-02-18T11:07:47.107Z,1006.00
2023-02-18T11:08:46.071Z,1006.00
2023-02-18T11:09:46.937Z,1006.00
2023-02-18T11:10:46.055Z,1006.00
2023-02-18T11:11:50.680Z,1006.00
2023-02-18T11:12:47.558Z,1006.00
2023-02-18T11:13:46.937Z,1006.00
2023-02-18T11:14:45.984Z,1006.00
2023-02-18T11:15:46.004Z,1006.00
2023-02-18T11:16:45.991Z,1006.00
2023-02-18T11:17:45.972Z,1006.00
2023-02-18T11:18:46.885Z,1006.00
2023-02-18T11:19:45.934Z,1006.00
2023-02-18T11:20:45.922Z,1006.00
2023-02-18T11:21:45.890Z,1006.00
2023-02-18T11:22:45.902Z,1005.00
2023-02-18T11:23:45.880Z,1005.00
2023-02-18T11:24:46.779Z,1005.00
2023-02-18T11:25:45.871Z,1005.00
2023-02-18T11:26:45.843Z,1005.00
2023-02-18T11:27:45.848Z,1005.00
2023-02-18T11:28:45.829Z,1005.00
2023-02-18T11:29:46.726Z,1005.00
2023-02-18T11:30:45.833Z,1005.00
2023-02-18T11:31:45.846Z,1005.00
2023-02-18T11:32:45.762Z,1005.00
2023-02-18T11:33:45.748Z,1005.00
2023-02-18T11:34:45.718Z,1005.00
2023-02-18T11:35:46.649Z,1005.00
2023-02-18T11:36:45.726Z,1005.00
2023-02-18T11:37:45.757Z,1005.00
2023-02-18T11:38:46.494Z,1005.00
2023-02-18T11:39:45.721Z,1005.00
2023-02-18T11:40:46.579Z,1005.00
2023-02-18T11:41:45.638Z,1005.00
2023-02-18T11:42:45.639Z,1005.00
2023-02-18T11:43:45.630Z,1005.00
2023-02-18T11:44:45.632Z,1005.00
2023-02-18T11:45:46.591Z,1005.00
2023-02-18T11:46:45.609Z,1005.00
2023-02-18T11:47:45.582Z,1005.00
2023-02-18T11:48:45.571Z,1005.00
2023-02-18T11:49:45.576Z,1005.00
2023-02-18T11:50:45.560Z,1005.00
2023-02-18T11:51:46.455Z,1005.00
2023-02-18T11:52:45.521Z,1005.00
2023-02-18T11:53:45.501Z,1005.00
2023-02-18T11:54:45.486Z,1005.00
2023-02-18T11:55:45.459Z,1005.00
2023-02-18T11:56:45.491Z,1005.00
2023-02-18T11:57:46.370Z,1005.00
2023-02-18T11:58:45.464Z,1004.00
2023-02-18T11:59:45.411Z,1004.00
2023-02-18T12:00:45.401Z,1004.00
2023-02-18T12:01:45.471Z,1004.00
2023-02-18T12:02:46.317Z,1004.00
2023-02-18T12:03:45.383Z,1004.00
2023-02-18T12:04:45.393Z,1004.00
2023-02-18T12:05:45.367Z,1004.00
2023-02-18T12:06:45.333Z,1004.00
2023-02-18T12:07:45.350Z,1004.00